Time;durP1;ratioP1;P1;durP2;ratioP2;P2;SDS_P1;SDS_P2;PMS_P1;PMS_P2;Temp;Humidity;BMP_temperature;BMP_pressure;BME280_temperature;BME280_humidity;BME280_pressure;Samples;Min_cycle;Max_cycle;Signal;HPM_P1;HPM_P2
2023/08/09 00:01:17;;;;;;;6.70;1.88;;;12.50;87.00;;;;;;5077395;28;20093;-79
2023/08/09 00:03:43;;;;;;;5.18;2.00;;;12.40;86.90;;;;;;5093872;28;20050;-79
2023/08/09 00:06:08;;;;;;;4.10;2.00;;;12.40;86.90;;;;;;5077096;28;20082;-79
2023/08/09 00:08:34;;;;;;;6.13;1.65;;;12.30;86.80;;;;;;5077310;28;20058;-79
2023/08/09 00:11:01;;;;;;;6.72;1.55;;;12.30;86.80;;;;;;5060198;28;20404;-79
2023/08/09 00:13:26;;;;;;;2.72;1.42;;;12.20;86.70;;;;;;5093834;28;20045;-79
2023/08/09 00:15:52;;;;;;;6.68;1.80;;;12.20;86.70;;;;;;5076778;28;20112;-79
2023/08/09 00:18:18;;;;;;;3.58;1.50;;;12.30;86.60;;;;;;5075738;28;20075;-79
2023/08/09 00:20:44;;;;;;;5.40;1.70;;;12.20;86.50;;;;;;5076982;28;20036;-79
2023/08/09 00:23:10;;;;;;;3.20;1.40;;;12.20;86.40;;;;;;5093924;28;20415;-80
2023/08/09 00:25:38;;;;;;;3.42;1.75;;;12.30;86.30;;;;;;5077126;28;20492;-79
2023/08/09 00:28:04;;;;;;;6.18;1.65;;;12.20;86.10;;;;;;5076452;28;20503;-78
2023/08/09 00:30:30;;;;;;;4.63;1.60;;;12.20;86.00;;;;;;5093609;28;20385;-79
2023/08/09 00:32:56;;;;;;;5.00;1.50;;;12.20;85.90;;;;;;5076666;28;20035;-79
2023/08/09 00:35:22;;;;;;;5.35;1.67;;;12.10;85.70;;;;;;5093320;28;20583;-78
2023/08/09 00:37:48;;;;;;;4.30;1.40;;;12.10;85.60;;;;;;5076733;28;20130;-77
2023/08/09 00:40:13;;;;;;;4.38;1.50;;;12.10;85.50;;;;;;5093258;28;20480;-79
2023/08/09 00:42:40;;;;;;;5.10;1.50;;;12.10;85.40;;;;;;5042943;28;20447;-79
2023/08/09 00:45:07;;;;;;;2.85;1.40;;;12.10;85.40;;;;;;5093176;28;20043;-78
2023/08/09 00:47:35;;;;;;;6.18;1.88;;;12.10;85.10;;;;;;5076535;28;20058;-79
2023/08/09 00:50:02;;;;;;;3.08;1.42;;;12.00;85.10;;;;;;5093065;28;20480;-79
2023/08/09 00:52:28;;;;;;;4.63;1.60;;;12.00;85.00;;;;;;5059325;28;20040;-78
2023/08/09 00:54:55;;;;;;;5.80;1.40;;;12.00;84.80;;;;;;5093262;28;20039;-78
2023/08/09 00:57:21;;;;;;;3.15;1.42;;;12.10;84.80;;;;;;5059458;28;20044;-79
2023/08/09 00:59:46;;;;;;;3.53;1.52;;;12.00;84.60;;;;;;5076374;28;20047;-77
2023/08/09 01:02:12;;;;;;;6.15;1.73;;;12.00;84.50;;;;;;5092960;28;20480;-78
2023/08/09 01:04:38;;;;;;;5.60;1.50;;;12.00;84.50;;;;;;5075732;28;20070;-79
2023/08/09 01:07:29;;;;;;;3.22;1.52;;;12.00;84.40;;;;;;5092748;28;20043;-79
2023/08/09 01:10:15;;;;;;;3.85;1.80;;;12.00;84.50;;;;;;5075835;28;20040;-79
2023/08/09 01:12:47;;;;;;;4.07;1.40;;;12.00;84.50;;;;;;5092828;28;20181;-79
2023/08/09 01:15:15;;;;;;;5.32;1.70;;;11.90;84.40;;;;;;5075842;28;20040;-78
2023/08/09 01:17:41;;;;;;;5.32;1.80;;;11.90;84.30;;;;;;5076146;28;20090;-78
2023/08/09 01:20:11;;;;;;;4.78;1.70;;;12.00;84.40;;;;;;5106467;28;20032;-79
2023/08/09 01:22:58;;;;;;;4.50;1.77;;;11.90;84.40;;;;;;5063970;28;20032;-78
2023/08/09 01:25:24;;;;;;;5.72;2.03;;;11.90;84.40;;;;;;5076189;28;20036;-79
2023/08/09 01:27:50;;;;;;;4.72;1.63;;;11.80;84.40;;;;;;5117583;28;20052;-78
2023/08/09 01:30:16;;;;;;;4.28;1.83;;;11.80;84.50;;;;;;5118570;28;20028;-79
2023/08/09 01:32:42;;;;;;;3.03;1.40;;;11.70;84.50;;;;;;5101758;28;20031;-79
2023/08/09 01:35:09;;;;;;;2.88;1.65;;;11.70;84.50;;;;;;5102106;28;20070;-78
2023/08/09 01:37:48;;;;;;;2.60;1.60;;;11.70;84.60;;;;;;5101996;28;20111;-80
2023/08/09 01:40:17;;;;;;;4.47;1.70;;;11.70;84.70;;;;;;5095932;28;20399;-78
2023/08/09 01:42:44;;;;;;;5.20;1.80;;;11.60;84.70;;;;;;5080481;28;20039;-78
2023/08/09 01:45:11;;;;;;;3.30;1.48;;;11.60;84.80;;;;;;5098651;28;20052;-79
2023/08/09 01:47:39;;;;;;;5.28;1.70;;;11.60;85.00;;;;;;5099668;28;20504;-78
2023/08/09 01:50:06;;;;;;;3.42;1.30;;;11.60;84.90;;;;;;5095287;28;20040;-78
2023/08/09 01:52:32;;;;;;;7.57;2.33;;;11.50;85.00;;;;;;5096932;28;20040;-78
2023/08/09 01:54:58;;;;;;;4.85;1.65;;;11.50;85.20;;;;;;5079446;28;20498;-79
2023/08/09 01:57:24;;;;;;;5.13;2.20;;;11.50;85.20;;;;;;5075563;28;20133;-79
2023/08/09 01:59:50;;;;;;;5.80;1.98;;;11.50;85.40;;;;;;5058414;28;20100;-78
2023/08/09 02:02:16;;;;;;;3.55;1.65;;;11.50;85.20;;;;;;5091794;28;20047;-78
2023/08/09 02:04:42;;;;;;;5.25;2.10;;;11.50;85.40;;;;;;5075184;28;20464;-79
2023/08/09 02:07:08;;;;;;;3.38;1.80;;;11.50;85.30;;;;;;5058549;28;20179;-78
2023/08/09 02:09:34;;;;;;;3.53;1.80;;;11.50;85.40;;;;;;5075238;28;20036;-78
2023/08/09 02:12:00;;;;;;;4.10;1.50;;;11.40;85.40;;;;;;5091872;28;20496;-77
2023/08/09 02:14:26;;;;;;;5.57;2.53;;;11.40;85.60;;;;;;5058487;28;20040;-79
2023/08/09 02:16:52;;;;;;;2.42;1.70;;;11.40;85.50;;;;;;5091664;28;20040;-78
2023/08/09 02:19:18;;;;;;;7.50;2.15;;;11.40;85.50;;;;;;5091682;28;20095;-79
2023/08/09 02:21:43;;;;;;;3.42;2.20;;;11.30;85.60;;;;;;5074764;28;20079;-79
2023/08/09 02:24:10;;;;;;;4.20;2.22;;;11.30;85.70;;;;;;5074866;28;20040;-78
2023/08/09 02:26:38;;;;;;;5.03;2.05;;;11.30;85.80;;;;;;5091916;28;20404;-78
2023/08/09 02:29:05;;;;;;;2.45;1.67;;;11.20;85.80;;;;;;5074893;28;20182;-79
2023/08/09 02:31:33;;;;;;;5.32;1.90;;;11.20;85.90;;;;;;5091458;28;20051;-79
2023/08/09 02:33:59;;;;;;;7.82;2.40;;;11.10;86.00;;;;;;5091546;28;20050;-79
2023/08/09 02:36:25;;;;;;;3.78;1.95;;;11.10;86.10;;;;;;5058067;28;20040;-78
2023/08/09 02:38:51;;;;;;;3.17;1.70;;;11.10;86.10;;;;;;5091746;28;20071;-77
2023/08/09 02:41:17;;;;;;;5.40;2.10;;;11.10;86.10;;;;;;5091707;28;20374;-79
2023/08/09 02:43:43;;;;;;;4.95;2.10;;;11.10;86.30;;;;;;5095218;28;20032;-78
2023/08/09 02:46:09;;;;;;;5.72;2.65;;;11.10;86.30;;;;;;5078813;28;20044;-78
2023/08/09 02:48:34;;;;;;;6.15;2.75;;;11.00;86.70;;;;;;5078521;28;20123;-79
2023/08/09 02:51:01;;;;;;;6.30;2.47;;;11.00;86.50;;;;;;5062138;28;20071;-78
2023/08/09 02:53:34;;;;;;;4.00;2.30;;;11.00;86.40;;;;;;5078530;28;20052;-77
2023/08/09 02:56:00;;;;;;;5.57;2.58;;;11.00;86.50;;;;;;5078407;28;20055;-79
2023/08/09 02:58:26;;;;;;;4.00;2.05;;;11.00;86.60;;;;;;5095197;28;20043;-77
2023/08/09 03:00:52;;;;;;;5.20;1.98;;;11.00;86.60;;;;;;5095074;28;20044;-78
2023/08/09 03:03:17;;;;;;;7.20;2.38;;;11.00;86.90;;;;;;5095124;28;20139;-78
2023/08/09 03:05:43;;;;;;;4.47;2.10;;;10.90;87.00;;;;;;5078138;28;20044;-79
2023/08/09 03:08:09;;;;;;;5.32;1.92;;;10.90;87.10;;;;;;5094937;28;20075;-78
2023/08/09 03:10:34;;;;;;;4.05;2.03;;;10.80;87.20;;;;;;5078307;28;20036;-79
2023/08/09 03:13:00;;;;;;;7.18;1.90;;;10.80;87.20;;;;;;5095137;28;20511;-79
2023/08/09 03:15:26;;;;;;;4.20;2.03;;;10.80;87.10;;;;;;5094810;28;20043;-78
2023/08/09 03:17:51;;;;;;;6.10;1.92;;;10.80;87.10;;;;;;5077952;28;20043;-79
2023/08/09 03:20:17;;;;;;;3.63;1.88;;;10.80;87.50;;;;;;5094810;28;20036;-78
2023/08/09 03:22:44;;;;;;;4.95;2.15;;;10.80;87.60;;;;;;5078018;28;20134;-78
2023/08/09 03:25:11;;;;;;;5.65;2.00;;;10.80;87.50;;;;;;5061313;28;20048;-78
2023/08/09 03:27:37;;;;;;;8.20;2.45;;;10.80;87.40;;;;;;5077506;28;20050;-79
2023/08/09 03:30:08;;;;;;;3.65;2.53;;;10.80;87.70;;;;;;5077751;28;20048;-79
2023/08/09 03:32:34;;;;;;;3.05;1.67;;;10.80;87.40;;;;;;5077864;28;20047;-78
2023/08/09 03:35:00;;;;;;;4.90;2.60;;;10.80;87.50;;;;;;5094547;28;20125;-78
2023/08/09 03:37:26;;;;;;;5.60;2.05;;;10.80;87.50;;;;;;5077615;28;20071;-78
2023/08/09 03:39:52;;;;;;;5.88;2.38;;;10.80;87.40;;;;;;5077563;28;20399;-78
2023/08/09 03:42:17;;;;;;;4.00;2.15;;;10.80;87.50;;;;;;5077504;28;20046;-76
2023/08/09 03:44:43;;;;;;;5.40;1.83;;;10.80;87.50;;;;;;5094239;28;20044;-78
2023/08/09 03:47:09;;;;;;;4.35;2.10;;;10.80;87.50;;;;;;5094283;28;20105;-78
2023/08/09 03:49:34;;;;;;;6.03;2.40;;;10.80;87.50;;;;;;5077637;28;20043;-78
2023/08/09 03:52:00;;;;;;;8.25;2.28;;;10.80;87.40;;;;;;5094305;28;20044;-77
2023/08/09 03:54:26;;;;;;;4.80;2.20;;;10.80;87.80;;;;;;5060828;28;20392;-79
2023/08/09 03:56:52;;;;;;;6.80;2.38;;;10.80;87.70;;;;;;5094313;28;20407;-78
2023/08/09 03:59:17;;;;;;;4.72;2.05;;;10.80;87.70;;;;;;5060480;28;20036;-78
2023/08/09 04:01:43;;;;;;;4.22;2.00;;;10.80;87.50;;;;;;5076463;28;20055;-78
2023/08/09 04:04:09;;;;;;;6.38;2.35;;;10.80;87.70;;;;;;5093458;28;20047;-77
2023/08/09 04:06:35;;;;;;;3.70;2.63;;;10.80;87.60;;;;;;5076259;28;20170;-80
2023/08/09 04:09:01;;;;;;;3.58;2.20;;;10.80;87.60;;;;;;5093235;28;20036;-78
2023/08/09 04:11:26;;;;;;;5.93;2.08;;;10.80;87.60;;;;;;5076452;28;20492;-79
2023/08/09 04:13:53;;;;;;;4.68;2.38;;;10.80;87.60;;;;;;5060469;28;20090;-80
2023/08/09 04:16:18;;;;;;;5.22;2.10;;;10.80;87.50;;;;;;5093896;28;20048;-79
2023/08/09 04:18:44;;;;;;;2.90;1.98;;;10.80;87.70;;;;;;5093960;28;20053;-77
2023/08/09 04:21:10;;;;;;;4.40;2.20;;;10.80;87.80;;;;;;5093481;28;20135;-76
2023/08/09 04:23:36;;;;;;;5.18;2.33;;;10.80;87.70;;;;;;5093441;28;20480;-77
2023/08/09 04:26:03;;;;;;;4.90;1.98;;;10.80;87.70;;;;;;5076569;28;20090;-79
2023/08/09 04:28:29;;;;;;;4.40;2.05;;;10.80;87.70;;;;;;5076627;28;20105;-78
2023/08/09 04:30:54;;;;;;;3.75;2.00;;;10.80;87.60;;;;;;5059787;28;20040;-78
2023/08/09 04:33:22;;;;;;;5.00;2.05;;;10.90;87.80;;;;;;5076710;28;20051;-79
2023/08/09 04:35:48;;;;;;;5.85;2.50;;;10.90;87.70;;;;;;5076675;28;20063;-79
2023/08/09 04:38:14;;;;;;;3.80;2.40;;;11.00;87.70;;;;;;5076649;28;20032;-79
2023/08/09 04:40:40;;;;;;;6.43;2.28;;;11.00;88.00;;;;;;5059656;28;20070;-79
2023/08/09 04:43:05;;;;;;;5.50;2.42;;;11.00;87.70;;;;;;5093358;28;20455;-79
2023/08/09 04:45:32;;;;;;;3.92;2.25;;;11.00;87.80;;;;;;5076552;28;20079;-78
2023/08/09 04:47:58;;;;;;;6.50;2.45;;;11.10;87.70;;;;;;5076234;28;20507;-79
2023/08/09 04:50:24;;;;;;;5.95;2.55;;;11.10;88.10;;;;;;5076013;28;20040;-79
2023/08/09 04:52:50;;;;;;;7.72;3.17;;;11.10;88.00;;;;;;5059604;28;20040;-78
2023/08/09 04:55:16;;;;;;;3.45;2.50;;;11.20;87.80;;;;;;5076580;28;20484;-78
2023/08/09 04:57:42;;;;;;;4.22;2.63;;;11.20;87.80;;;;;;5059553;28;20040;-79
2023/08/09 05:00:12;;;;;;;7.10;2.45;;;11.20;87.80;;;;;;5076250;28;20040;-79
2023/08/09 05:02:37;;;;;;;3.00;2.10;;;11.30;87.90;;;;;;5076103;28;20130;-78
2023/08/09 05:05:04;;;;;;;6.47;2.08;;;11.30;87.90;;;;;;5075199;28;20131;-77
2023/08/09 05:07:30;;;;;;;4.82;2.10;;;11.30;87.90;;;;;;5093089;28;20101;-78
2023/08/09 05:09:56;;;;;;;5.47;2.13;;;11.40;88.10;;;;;;5092648;28;20430;-78
2023/08/09 05:12:21;;;;;;;9.85;2.40;;;11.50;87.90;;;;;;5075746;28;20119;-79
2023/08/09 05:14:47;;;;;;;4.90;1.88;;;11.40;88.40;;;;;;5092859;28;20044;-78
2023/08/09 05:17:13;;;;;;;3.05;1.90;;;11.50;88.30;;;;;;5075634;28;20036;-78
2023/08/09 05:19:38;;;;;;;5.53;2.88;;;11.60;88.10;;;;;;5092722;28;20047;-79
2023/08/09 05:22:04;;;;;;;5.30;2.08;;;11.60;87.90;;;;;;5058990;28;20376;-78
2023/08/09 05:24:30;;;;;;;5.82;2.42;;;11.70;88.20;;;;;;5042345;28;20067;-78
2023/08/09 05:26:55;;;;;;;5.53;2.40;;;11.90;87.90;;;;;;5058738;28;20484;-78
2023/08/09 05:29:21;;;;;;;4.78;1.88;;;12.00;87.90;;;;;;5075889;28;20448;-77
2023/08/09 05:31:47;;;;;;;4.00;2.15;;;12.00;88.10;;;;;;5075624;28;20032;-79
2023/08/09 05:34:12;;;;;;;3.83;2.30;;;12.10;88.00;;;;;;5075452;28;20053;-79
2023/08/09 05:36:38;;;;;;;5.72;2.00;;;12.30;87.90;;;;;;5075433;28;20055;-78
2023/08/09 05:39:04;;;;;;;3.58;1.85;;;12.30;88.00;;;;;;5075343;28;20050;-78
2023/08/09 05:41:30;;;;;;;6.32;2.53;;;12.40;88.00;;;;;;5092030;28;20436;-77
2023/08/09 05:43:55;;;;;;;3.60;2.00;;;12.50;88.40;;;;;;5092275;28;20171;-78
2023/08/09 05:46:21;;;;;;;3.25;1.52;;;12.60;87.90;;;;;;5075282;28;20043;-78
2023/08/09 05:48:47;;;;;;;3.10;1.70;;;12.70;87.90;;;;;;5075211;28;20140;-77
2023/08/09 05:51:12;;;;;;;4.32;2.22;;;12.80;87.80;;;;;;5075340;28;20040;-79
2023/08/09 05:53:38;;;;;;;4.63;2.15;;;12.90;87.90;;;;;;5091936;28;20454;-80
2023/08/09 05:56:04;;;;;;;5.63;2.35;;;13.00;87.70;;;;;;5075218;28;20040;-78
2023/08/09 05:58:29;;;;;;;5.68;2.17;;;13.10;87.60;;;;;;5075111;28;20048;-79
2023/08/09 06:00:57;;;;;;;8.70;2.33;;;13.30;87.70;;;;;;5091985;28;20040;-79
2023/08/09 06:03:22;;;;;;;3.58;1.83;;;13.30;87.60;;;;;;5074993;28;20069;-81
2023/08/09 06:05:48;;;;;;;8.50;2.17;;;13.40;87.50;;;;;;5075016;28;20040;-80
2023/08/09 06:08:14;;;;;;;3.88;1.70;;;13.60;87.60;;;;;;5074891;28;20040;-80
2023/08/09 06:10:39;;;;;;;3.20;1.50;;;13.70;87.90;;;;;;5091718;28;20040;-79
2023/08/09 06:13:05;;;;;;;3.45;1.52;;;13.80;87.40;;;;;;5074884;28;20404;-80
2023/08/09 06:15:31;;;;;;;3.63;1.60;;;13.90;87.40;;;;;;5075363;28;20043;-79
2023/08/09 06:17:57;;;;;;;4.97;1.73;;;14.00;87.40;;;;;;5096193;28;20607;-80
2023/08/09 06:20:22;;;;;;;5.68;1.50;;;14.20;87.20;;;;;;5095928;28;20068;-79
2023/08/09 06:22:48;;;;;;;3.13;1.58;;;14.30;87.10;;;;;;5078984;28;20090;-79
2023/08/09 06:25:14;;;;;;;5.40;2.20;;;14.50;86.80;;;;;;5078941;28;20036;-80
2023/08/09 06:27:40;;;;;;;4.88;1.75;;;14.60;86.50;;;;;;5095741;28;20480;-81
2023/08/09 06:30:06;;;;;;;5.32;2.10;;;14.70;86.40;;;;;;5078939;28;20562;-79
2023/08/09 06:32:33;;;;;;;4.18;1.70;;;14.80;86.40;;;;;;5078796;28;20036;-80
2023/08/09 06:34:59;;;;;;;4.38;1.92;;;14.90;86.40;;;;;;5062197;28;20047;-80
2023/08/09 06:37:24;;;;;;;4.88;1.70;;;15.00;86.20;;;;;;5079118;28;20044;-79
2023/08/09 06:39:50;;;;;;;3.90;1.45;;;15.10;86.00;;;;;;5062133;28;20373;-79
2023/08/09 06:42:16;;;;;;;2.70;1.67;;;15.20;85.80;;;;;;5078693;28;20036;-80
2023/08/09 06:44:42;;;;;;;5.03;1.75;;;15.30;85.80;;;;;;5095424;28;20043;-79
2023/08/09 06:47:08;;;;;;;2.75;1.77;;;15.50;85.40;;;;;;5078985;28;20044;-79
2023/08/09 06:49:34;;;;;;;11.15;2.53;;;15.50;85.30;;;;;;5095419;28;20113;-79
2023/08/09 06:52:00;;;;;;;4.10;2.00;;;15.70;85.10;;;;;;5095185;28;20051;-78
2023/08/09 06:54:27;;;;;;;3.40;2.05;;;15.80;84.60;;;;;;5078747;28;20471;-79
2023/08/09 06:56:53;;;;;;;4.85;1.75;;;15.90;84.30;;;;;;5095270;28;20106;-78
2023/08/09 06:59:19;;;;;;;6.35;1.67;;;16.00;84.50;;;;;;5078319;28;20048;-79
2023/08/09 07:01:47;;;;;;;14.15;2.67;;;16.10;84.40;;;;;;5095121;28;20038;-78
2023/08/09 07:04:14;;;;;;;9.23;3.05;;;16.20;83.80;;;;;;5078099;28;20507;-79
2023/08/09 07:06:39;;;;;;;3.33;1.38;;;16.30;83.60;;;;;;5061523;28;20126;-79
2023/08/09 07:09:05;;;;;;;4.45;1.50;;;16.40;83.20;;;;;;5078121;28;20115;-79
2023/08/09 07:11:32;;;;;;;5.15;1.60;;;16.50;82.40;;;;;;5094908;28;20044;-80
2023/08/09 07:13:58;;;;;;;5.28;1.48;;;16.60;82.00;;;;;;5078372;28;20127;-79
2023/08/09 07:16:24;;;;;;;4.50;1.50;;;16.60;81.90;;;;;;5095116;28;20104;-79
2023/08/09 07:18:50;;;;;;;5.22;1.58;;;16.70;81.60;;;;;;5077953;28;20484;-79
2023/08/09 07:21:16;;;;;;;4.63;1.50;;;16.80;81.40;;;;;;5094677;28;20044;-79
2023/08/09 07:23:42;;;;;;;5.00;1.50;;;16.90;80.10;;;;;;5094751;28;20040;-79
2023/08/09 07:26:07;;;;;;;3.88;1.45;;;17.00;79.70;;;;;;5077806;28;20058;-79
2023/08/09 07:28:33;;;;;;;2.78;1.10;;;17.10;79.20;;;;;;5093851;28;20052;-78
2023/08/09 07:30:59;;;;;;;4.65;1.23;;;17.20;78.20;;;;;;5077636;28;20044;-80
2023/08/09 07:33:24;;;;;;;4.15;1.33;;;17.30;77.40;;;;;;5094595;28;20123;-79
2023/08/09 07:35:50;;;;;;;5.40;1.38;;;17.30;76.80;;;;;;5077692;28;20054;-78
2023/08/09 07:38:17;;;;;;;8.50;2.10;;;17.40;76.60;;;;;;5077788;28;20036;-79
2023/08/09 07:40:42;;;;;;;4.45;1.38;;;17.50;75.00;;;;;;5094352;28;20044;-77
2023/08/09 07:43:08;;;;;;;7.57;1.88;;;17.50;74.80;;;;;;5077583;28;20113;-79
2023/08/09 07:45:34;;;;;;;5.40;1.90;;;17.50;74.80;;;;;;5094412;28;20032;-78
2023/08/09 07:48:00;;;;;;;5.00;1.63;;;17.70;74.60;;;;;;5077671;28;20127;-79
2023/08/09 07:50:27;;;;;;;4.30;1.92;;;17.70;74.30;;;;;;5094187;28;20515;-79
2023/08/09 07:52:53;;;;;;;7.78;1.80;;;17.80;74.20;;;;;;5094106;28;20043;-79
2023/08/09 07:55:19;;;;;;;4.25;1.27;;;17.80;73.70;;;;;;5077311;28;20040;-78
2023/08/09 07:57:45;;;;;;;3.97;1.05;;;17.90;72.80;;;;;;5094375;28;20467;-78
2023/08/09 08:00:12;;;;;;;2.42;0.90;;;18.00;72.30;;;;;;5094347;28;20083;-79
2023/08/09 08:02:41;;;;;;;3.95;1.42;;;18.10;72.00;;;;;;5077077;28;20036;-78
2023/08/09 08:05:07;;;;;;;3.20;1.08;;;18.20;71.50;;;;;;5093876;28;20093;-78
2023/08/09 08:07:33;;;;;;;7.68;1.33;;;18.30;71.10;;;;;;5094013;28;20040;-78
2023/08/09 08:09:58;;;;;;;4.68;1.10;;;18.40;70.30;;;;;;5060738;28;20167;-79
2023/08/09 08:12:26;;;;;;;3.00;1.10;;;18.40;70.60;;;;;;5045317;28;20830;-78
2023/08/09 08:14:52;;;;;;;2.65;1.08;;;18.60;69.90;;;;;;5069568;28;20707;-79
2023/08/09 08:17:18;;;;;;;4.03;1.00;;;18.70;67.70;;;;;;5070057;28;20139;-78
2023/08/09 08:19:43;;;;;;;1.73;1.08;;;18.60;67.60;;;;;;5085866;28;20403;-78
2023/08/09 08:22:09;;;;;;;2.22;1.10;;;18.70;66.80;;;;;;5068244;28;20063;-79
2023/08/09 08:24:35;;;;;;;2.28;1.23;;;18.70;67.40;;;;;;5069103;28;20062;-78
2023/08/09 08:27:01;;;;;;;2.97;1.38;;;18.80;67.30;;;;;;5084390;28;20074;-78
2023/08/09 08:29:27;;;;;;;4.40;1.17;;;18.90;66.70;;;;;;5069414;28;20048;-79
2023/08/09 08:31:53;;;;;;;3.33;1.02;;;18.90;67.20;;;;;;5067515;28;20044;-78
2023/08/09 08:34:22;;;;;;;2.00;0.93;;;18.90;66.10;;;;;;5086119;28;20055;-78
2023/08/09 08:36:48;;;;;;;3.03;0.90;;;19.00;66.50;;;;;;5086187;28;20051;-77
2023/08/09 08:39:15;;;;;;;2.13;1.00;;;19.00;65.50;;;;;;5084841;28;20075;-78
2023/08/09 08:41:42;;;;;;;3.22;1.00;;;19.00;65.40;;;;;;5068818;28;20967;-79
2023/08/09 08:44:11;;;;;;;4.15;1.00;;;19.00;65.70;;;;;;5084603;28;20048;-78
2023/08/09 08:46:37;;;;;;;1.33;0.95;;;19.20;66.00;;;;;;5085783;28;20075;-78
2023/08/09 08:49:05;;;;;;;3.63;1.27;;;19.20;65.50;;;;;;5086069;28;20090;-79
2023/08/09 08:51:33;;;;;;;2.92;1.13;;;19.40;65.40;;;;;;5086052;28;20075;-80
2023/08/09 08:53:59;;;;;;;2.05;0.90;;;19.40;64.60;;;;;;5084453;28;20061;-78
2023/08/09 08:56:25;;;;;;;3.38;1.10;;;19.40;64.20;;;;;;5085074;28;20044;-78
2023/08/09 08:58:51;;;;;;;2.92;1.40;;;19.50;63.60;;;;;;5085841;28;20403;-79
2023/08/09 09:01:18;;;;;;;3.33;1.10;;;19.50;63.00;;;;;;5068478;28;20117;-78
2023/08/09 09:03:44;;;;;;;4.88;1.30;;;19.60;63.00;;;;;;5067275;28;20143;-78
2023/08/09 09:06:10;;;;;;;3.15;1.00;;;19.60;61.80;;;;;;5085389;28;20507;-79
2023/08/09 09:08:44;;;;;;;5.78;1.92;;;19.60;61.70;;;;;;5068475;28;20704;-79
2023/08/09 09:11:16;;;;;;;4.17;1.20;;;19.50;62.70;;;;;;5085261;28;20042;-79
2023/08/09 09:13:42;;;;;;;3.88;1.60;;;19.50;63.70;;;;;;5083316;28;20125;-78
2023/08/09 09:16:08;;;;;;;2.63;1.33;;;19.40;64.50;;;;;;5064004;28;20086;-79
2023/08/09 09:18:41;;;;;;;1.90;1.10;;;19.50;64.00;;;;;;5068804;28;20551;-78
2023/08/09 09:21:10;;;;;;;1.52;1.00;;;19.50;64.40;;;;;;5046597;28;20032;-79
2023/08/09 09:23:37;;;;;;;3.17;1.30;;;19.60;63.20;;;;;;5083426;28;20123;-79
2023/08/09 09:26:11;;;;;;;2.22;1.10;;;19.70;63.90;;;;;;5085552;28;20078;-77
2023/08/09 09:28:41;;;;;;;2.08;1.30;;;19.80;63.10;;;;;;5067790;28;20112;-79
2023/08/09 09:31:10;;;;;;;2.97;1.25;;;19.80;63.00;;;;;;5067914;28;20484;-76
2023/08/09 09:33:37;;;;;;;2.15;1.10;;;19.90;63.50;;;;;;5083326;28;20553;-77
2023/08/09 09:36:03;;;;;;;2.67;1.05;;;20.00;62.80;;;;;;5085363;28;20079;-80
2023/08/09 09:38:29;;;;;;;2.03;1.25;;;20.00;62.30;;;;;;5084596;28;20036;-77
2023/08/09 09:40:57;;;;;;;1.92;1.30;;;20.10;62.90;;;;;;5084798;28;20044;-80
2023/08/09 09:43:26;;;;;;;5.03;1.55;;;20.10;63.70;;;;;;5066974;28;20097;-80
2023/08/09 09:45:55;;;;;;;3.35;1.88;;;20.00;62.20;;;;;;5084930;28;20048;-80
2023/08/09 09:48:21;;;;;;;3.67;1.33;;;20.00;63.10;;;;;;5068225;28;20136;-79
2023/08/09 09:50:48;;;;;;;3.17;1.00;;;20.00;64.50;;;;;;5067716;28;20545;-80
2023/08/09 09:53:18;;;;;;;2.70;1.15;;;19.90;63.20;;;;;;5083241;28;20039;-79
2023/08/09 09:55:45;;;;;;;3.40;1.20;;;20.00;62.00;;;;;;5084492;28;20032;-79
2023/08/09 09:58:14;;;;;;;2.95;1.35;;;20.00;62.10;;;;;;5084933;28;20411;-80
2023/08/09 10:00:47;;;;;;;2.42;1.15;;;20.10;62.80;;;;;;5066997;28;20144;-80
2023/08/09 10:03:16;;;;;;;4.10;1.77;;;20.10;62.80;;;;;;5082812;28;20044;-79
2023/08/09 10:05:45;;;;;;;2.42;1.05;;;20.10;63.80;;;;;;5084269;28;20069;-79
2023/08/09 10:08:12;;;;;;;3.83;1.20;;;20.20;64.00;;;;;;5067407;28;20051;-80
2023/08/09 10:10:40;;;;;;;2.03;1.30;;;20.10;64.20;;;;;;5084314;28;20047;-78
2023/08/09 10:13:07;;;;;;;3.85;1.20;;;20.10;63.30;;;;;;5083131;28;20484;-79
2023/08/09 10:15:40;;;;;;;4.20;1.48;;;20.20;63.70;;;;;;5067606;28;20040;-79
2023/08/09 10:18:18;;;;;;;2.20;1.20;;;20.20;63.90;;;;;;5083347;28;20040;-78
2023/08/09 10:20:47;;;;;;;3.55;1.40;;;20.10;64.10;;;;;;5067155;28;20579;-79
2023/08/09 10:23:21;;;;;;;3.53;1.10;;;20.00;64.80;;;;;;5077913;28;20083;-78
2023/08/09 10:25:48;;;;;;;4.05;1.10;;;20.00;65.60;;;;;;5067743;28;20112;-78
2023/08/09 10:28:13;;;;;;;3.53;1.10;;;20.10;66.60;;;;;;5084011;28;20060;-77
2023/08/09 10:30:48;;;;;;;3.25;1.30;;;20.10;65.40;;;;;;5083843;28;20054;-78
2023/08/09 10:33:18;;;;;;;5.18;1.52;;;20.20;64.20;;;;;;5082522;28;20579;-80
2023/08/09 10:35:49;;;;;;;3.78;1.27;;;20.20;64.80;;;;;;5068042;28;20050;-79
2023/08/09 10:38:17;;;;;;;3.17;1.73;;;20.10;64.80;;;;;;5067477;28;20047;-79
2023/08/09 10:40:43;;;;;;;2.50;1.67;;;20.10;65.00;;;;;;5083788;28;20097;-78
2023/08/09 10:43:23;;;;;;;2.25;1.35;;;20.00;64.40;;;;;;5082651;28;20040;-79
2023/08/09 10:45:51;;;;;;;3.28;1.23;;;20.20;64.10;;;;;;5067289;28;20043;-78
2023/08/09 10:48:28;;;;;;;3.25;1.42;;;20.20;64.00;;;;;;5068215;28;20048;-78
2023/08/09 10:51:21;;;;;;;1.70;1.38;;;20.20;64.20;;;;;;5068167;28;20449;-78
2023/08/09 10:54:00;;;;;;;4.13;1.20;;;20.10;65.30;;;;;;5077830;28;20059;-80
2023/08/09 10:56:41;;;;;;;4.15;1.30;;;20.10;65.20;;;;;;5079271;28;20430;-79
2023/08/09 10:59:27;;;;;;;2.42;1.42;;;20.00;64.90;;;;;;5066279;28;20495;-80
2023/08/09 11:01:54;;;;;;;3.08;1.77;;;20.00;66.10;;;;;;5066148;28;20408;-79
2023/08/09 11:04:20;;;;;;;1.65;1.13;;;20.20;66.30;;;;;;5086888;28;20124;-79
2023/08/09 11:06:48;;;;;;;3.03;1.38;;;20.20;64.90;;;;;;5073049;28;20040;-79
2023/08/09 11:09:21;;;;;;;2.85;1.40;;;20.30;64.30;;;;;;5055697;28;20119;-79
2023/08/09 11:11:48;;;;;;;3.17;1.60;;;20.40;65.00;;;;;;5090415;28;20043;-80
2023/08/09 11:14:16;;;;;;;3.80;1.65;;;20.40;66.10;;;;;;5076894;28;20299;-78
2023/08/09 11:16:43;;;;;;;3.35;1.42;;;20.30;65.70;;;;;;5076269;28;20036;-79
2023/08/09 11:19:17;;;;;;;2.33;1.65;;;20.50;66.80;;;;;;5076342;28;20108;-79
2023/08/09 11:21:48;;;;;;;3.33;1.60;;;20.40;66.90;;;;;;5091485;28;20047;-78
2023/08/09 11:24:16;;;;;;;3.15;1.60;;;20.40;67.10;;;;;;5090689;28;20047;-78
2023/08/09 11:26:52;;;;;;;5.22;1.85;;;20.10;68.80;;;;;;5075629;28;20033;-80
2023/08/09 11:29:19;;;;;;;2.28;1.52;;;20.00;69.00;;;;;;5088254;28;20143;-78
2023/08/09 11:31:48;;;;;;;10.02;2.63;;;20.00;69.70;;;;;;5091527;28;20036;-79
2023/08/09 11:34:15;;;;;;;4.70;1.67;;;20.00;67.40;;;;;;5076254;28;20148;-79
2023/08/09 11:36:42;;;;;;;1.77;1.30;;;20.00;66.60;;;;;;5092551;28;20435;-79
2023/08/09 11:39:10;;;;;;;2.22;1.10;;;20.30;66.00;;;;;;5092646;28;20047;-79
2023/08/09 11:41:54;;;;;;;5.10;1.65;;;20.50;64.30;;;;;;5090244;28;20039;-79
2023/08/09 11:44:31;;;;;;;3.67;1.75;;;20.60;60.90;;;;;;5060993;28;20177;-79
2023/08/09 11:47:00;;;;;;;3.45;1.42;;;20.80;62.10;;;;;;5072064;28;20097;-80
2023/08/09 11:49:31;;;;;;;4.50;1.45;;;20.90;60.70;;;;;;5092891;28;20496;-78
2023/08/09 11:51:59;;;;;;;6.78;1.52;;;20.90;61.50;;;;;;5091742;28;20116;-80
2023/08/09 11:54:26;;;;;;;5.63;1.50;;;21.10;61.90;;;;;;5092814;28;20134;-80
2023/08/09 11:56:52;;;;;;;3.92;2.28;;;21.10;60.00;;;;;;5092403;28;20077;-78
2023/08/09 11:59:19;;;;;;;3.85;1.30;;;21.20;59.90;;;;;;5075639;28;20040;-79
2023/08/09 12:01:47;;;;;;;3.10;1.13;;;21.40;60.50;;;;;;5074011;28;20055;-77
2023/08/09 12:04:17;;;;;;;4.35;1.20;;;21.50;56.40;;;;;;5062343;28;20137;-79
2023/08/09 12:06:54;;;;;;;5.38;1.60;;;21.60;56.70;;;;;;5059033;28;20039;-80
2023/08/09 12:09:30;;;;;;;4.53;1.70;;;21.60;58.50;;;;;;5082950;28;20404;-80
2023/08/09 12:12:02;;;;;;;3.05;1.23;;;21.50;59.80;;;;;;5088089;28;20059;-80
2023/08/09 12:14:28;;;;;;;2.80;1.45;;;21.70;59.10;;;;;;5077818;28;20051;-80
2023/08/09 12:16:54;;;;;;;3.85;1.17;;;21.90;57.70;;;;;;5076923;28;20039;-80
2023/08/09 12:19:20;;;;;;;4.20;1.42;;;21.90;56.60;;;;;;5093751;28;20047;-78
2023/08/09 12:21:46;;;;;;;4.13;1.40;;;21.70;58.10;;;;;;5076750;28;20040;-78
2023/08/09 12:24:13;;;;;;;3.75;1.33;;;21.60;59.10;;;;;;5077922;28;20098;-79
2023/08/09 12:26:38;;;;;;;3.85;1.50;;;21.50;58.10;;;;;;5089168;28;20032;-78
2023/08/09 12:29:04;;;;;;;5.45;2.13;;;21.40;58.70;;;;;;5067860;28;20051;-78
2023/08/09 12:31:30;;;;;;;4.45;2.25;;;21.50;60.00;;;;;;5087158;28;20052;-78
2023/08/09 12:33:56;;;;;;;7.53;2.22;;;21.60;60.70;;;;;;5085192;28;20050;-78
2023/08/09 12:36:22;;;;;;;5.55;1.90;;;21.80;62.40;;;;;;5069034;28;20047;-78
2023/08/09 12:38:48;;;;;;;4.28;1.60;;;21.60;62.30;;;;;;5086030;28;20054;-79
2023/08/09 12:41:14;;;;;;;5.80;1.58;;;21.60;62.40;;;;;;5068875;28;20387;-78
2023/08/09 12:43:39;;;;;;;5.20;1.48;;;21.70;61.50;;;;;;5084696;28;20047;-79
2023/08/09 12:46:05;;;;;;;6.45;1.45;;;21.50;58.90;;;;;;5069292;28;20054;-79